HBLMB LSZG-LSZS
Flight info
| Callsign | HBLMB |
|---|---|
| Flight time | 0h 56m |
| Altitude | 13000 |
| Route | WIL DCT OBEDU DCT OMIDO DCT MANEG DCT ELMUR DCT ARGAX DCT LSZE DCT 465488N0094692E DCT RONAG |
| Aircraft | DA42/L-SBDGRY/S |
Departure
| Time | 2026-05-04 18:41 |
|---|---|
| Airport | Grenchen Airfield (LSZG) |
Arrival
| Time | 2026-05-04 19:37 |
|---|---|
| Airport | Engadin Airport (LSZS) |
| Time | Latitude | Longitude | Altitude | Speed | Heading |
|---|---|---|---|---|---|
| 2026-05-04 18:24 | 47.18198 | 7.41285 | 1413 ft | 0 kts | 243° |
| 2026-05-04 18:30 | 47.18172 | 7.41277 | 1412 ft | 8 kts | 156° |
| 2026-05-04 18:30 | 47.18173 | 7.41341 | 1411 ft | 7 kts | 56° |
| 2026-05-04 18:31 | 47.18190 | 7.41403 | 1411 ft | 7 kts | 62° |
| 2026-05-04 18:31 | 47.18212 | 7.41475 | 1413 ft | 8 kts | 64° |
| 2026-05-04 18:31 | 47.18236 | 7.41550 | 1411 ft | 9 kts | 64° |
| 2026-05-04 18:31 | 47.18266 | 7.41649 | 1414 ft | 11 kts | 65° |
| 2026-05-04 18:32 | 47.18259 | 7.41780 | 1408 ft | 15 kts | 105° |
| 2026-05-04 18:32 | 47.18249 | 7.41836 | 1405 ft | 0 kts | 106° |
| 2026-05-04 18:37 | 47.18249 | 7.41838 | 1405 ft | 2 kts | 106° |
| 2026-05-04 18:38 | 47.18247 | 7.41848 | 1405 ft | 0 kts | 107° |
| 2026-05-04 18:39 | 47.18243 | 7.41868 | 1407 ft | 9 kts | 104° |
| 2026-05-04 18:39 | 47.18244 | 7.41985 | 1405 ft | 16 kts | 67° |
| 2026-05-04 18:39 | 47.18294 | 7.42146 | 1408 ft | 18 kts | 63° |
| 2026-05-04 18:40 | 47.18346 | 7.42284 | 1403 ft | 9 kts | 65° |
| 2026-05-04 18:40 | 47.18336 | 7.42282 | 1402 ft | 0 kts | 240° |
| 2026-05-04 18:40 | 47.18269 | 7.42064 | 1407 ft | 55 kts | 245° |
| 2026-05-04 18:41 | 47.18043 | 7.41340 | 1485 ft | 90 kts | 244° |
| 2026-05-04 18:41 | 47.17773 | 7.40470 | 1821 ft | 97 kts | 245° |
| 2026-05-04 18:41 | 47.17495 | 7.39530 | 2052 ft | 103 kts | 245° |
| 2026-05-04 18:41 | 47.17214 | 7.38592 | 2350 ft | 100 kts | 240° |
| 2026-05-04 18:42 | 47.16625 | 7.38204 | 2614 ft | 102 kts | 171° |
| 2026-05-04 18:42 | 47.15964 | 7.38573 | 2906 ft | 102 kts | 158° |
| 2026-05-04 18:42 | 47.15317 | 7.38991 | 3196 ft | 102 kts | 158° |
| 2026-05-04 18:42 | 47.14671 | 7.39472 | 3456 ft | 104 kts | 151° |
| 2026-05-04 18:43 | 47.14268 | 7.40303 | 3739 ft | 104 kts | 99° |
| 2026-05-04 18:43 | 47.14408 | 7.41360 | 3972 ft | 110 kts | 70° |
| 2026-05-04 18:43 | 47.14713 | 7.42407 | 4221 ft | 113 kts | 68° |
| 2026-05-04 18:43 | 47.15057 | 7.43527 | 4374 ft | 122 kts | 64° |
| 2026-05-04 18:44 | 47.15420 | 7.44634 | 4667 ft | 119 kts | 63° |
| 2026-05-04 18:44 | 47.15670 | 7.45364 | 4855 ft | 118 kts | 63° |
| 2026-05-04 18:44 | 47.16168 | 7.46770 | 5221 ft | 116 kts | 65° |
| 2026-05-04 18:44 | 47.16528 | 7.47833 | 5481 ft | 116 kts | 66° |
| 2026-05-04 18:45 | 47.16899 | 7.48915 | 5665 ft | 125 kts | 67° |
| 2026-05-04 18:45 | 47.17298 | 7.50067 | 5838 ft | 130 kts | 66° |
| 2026-05-04 18:45 | 47.17719 | 7.51268 | 6007 ft | 134 kts | 65° |
| 2026-05-04 18:45 | 47.18151 | 7.52495 | 6211 ft | 136 kts | 66° |
| 2026-05-04 18:46 | 47.18588 | 7.53731 | 6403 ft | 137 kts | 66° |
| 2026-05-04 18:46 | 47.18815 | 7.55047 | 6610 ft | 131 kts | 93° |
| 2026-05-04 18:46 | 47.18772 | 7.56373 | 6817 ft | 131 kts | 97° |
| 2026-05-04 18:46 | 47.18732 | 7.57722 | 7004 ft | 132 kts | 94° |
| 2026-05-04 18:47 | 47.18818 | 7.59068 | 7206 ft | 135 kts | 82° |
| 2026-05-04 18:47 | 47.18915 | 7.60450 | 7336 ft | 138 kts | 93° |
| 2026-05-04 18:47 | 47.18740 | 7.61811 | 7551 ft | 132 kts | 109° |
| 2026-05-04 18:47 | 47.18611 | 7.63141 | 7759 ft | 136 kts | 92° |
| 2026-05-04 18:48 | 47.18629 | 7.64554 | 7974 ft | 137 kts | 93° |
| 2026-05-04 18:48 | 47.18666 | 7.65964 | 8209 ft | 140 kts | 92° |
| 2026-05-04 18:48 | 47.18717 | 7.67418 | 8445 ft | 145 kts | 92° |
| 2026-05-04 18:48 | 47.18777 | 7.68920 | 8673 ft | 149 kts | 91° |
| 2026-05-04 18:49 | 47.18837 | 7.70443 | 8901 ft | 149 kts | 92° |
| 2026-05-04 18:49 | 47.18892 | 7.71961 | 9127 ft | 148 kts | 92° |
| 2026-05-04 18:49 | 47.18842 | 7.73434 | 9347 ft | 140 kts | 117° |
| 2026-05-04 18:49 | 47.18449 | 7.74718 | 9585 ft | 139 kts | 116° |
| 2026-05-04 18:50 | 47.18279 | 7.76144 | 9834 ft | 143 kts | 102° |
| 2026-05-04 18:50 | 47.18219 | 7.77590 | 10053 ft | 144 kts | 99° |
| 2026-05-04 18:50 | 47.18175 | 7.79065 | 10269 ft | 145 kts | 99° |
| 2026-05-04 18:50 | 47.18132 | 7.80554 | 10486 ft | 147 kts | 99° |
| 2026-05-04 18:51 | 47.18089 | 7.82059 | 10702 ft | 148 kts | 99° |
| 2026-05-04 18:51 | 47.18046 | 7.83565 | 10923 ft | 148 kts | 99° |
| 2026-05-04 18:51 | 47.18001 | 7.85075 | 11140 ft | 148 kts | 99° |
| 2026-05-04 18:51 | 47.17955 | 7.86591 | 11361 ft | 148 kts | 99° |
| 2026-05-04 18:52 | 47.17910 | 7.88104 | 11584 ft | 148 kts | 99° |
| 2026-05-04 18:52 | 47.17865 | 7.89617 | 11808 ft | 148 kts | 99° |
| 2026-05-04 18:52 | 47.17969 | 7.91145 | 12027 ft | 154 kts | 77° |
| 2026-05-04 18:52 | 47.18301 | 7.92637 | 12257 ft | 154 kts | 75° |
| 2026-05-04 18:53 | 47.18648 | 7.94132 | 12475 ft | 156 kts | 75° |
| 2026-05-04 18:53 | 47.19003 | 7.95662 | 12666 ft | 160 kts | 75° |
| 2026-05-04 18:53 | 47.19361 | 7.97218 | 12845 ft | 162 kts | 75° |
| 2026-05-04 18:53 | 47.19726 | 7.98811 | 12961 ft | 171 kts | 75° |
| 2026-05-04 18:54 | 47.20116 | 8.00520 | 12961 ft | 181 kts | 75° |
| 2026-05-04 18:54 | 47.20524 | 8.02312 | 12965 ft | 188 kts | 74° |
| 2026-05-04 18:54 | 47.20949 | 8.04165 | 12965 ft | 194 kts | 74° |
| 2026-05-04 18:54 | 47.21386 | 8.06072 | 12962 ft | 198 kts | 74° |
| 2026-05-04 18:55 | 47.21827 | 8.07999 | 12964 ft | 199 kts | 74° |
| 2026-05-04 18:55 | 47.22712 | 8.11875 | 12962 ft | 200 kts | 74° |
| 2026-05-04 18:55 | 47.23154 | 8.13817 | 12961 ft | 200 kts | 74° |
| 2026-05-04 18:56 | 47.23597 | 8.15762 | 12961 ft | 201 kts | 74° |
| 2026-05-04 18:56 | 47.24039 | 8.17705 | 12953 ft | 199 kts | 74° |
| 2026-05-04 18:56 | 47.24476 | 8.19631 | 12961 ft | 198 kts | 74° |
| 2026-05-04 18:56 | 47.24914 | 8.21564 | 12959 ft | 199 kts | 75° |
| 2026-05-04 18:57 | 47.25259 | 8.23511 | 13027 ft | 195 kts | 79° |
| 2026-05-04 18:57 | 47.25551 | 8.25483 | 12953 ft | 201 kts | 81° |
| 2026-05-04 18:57 | 47.25867 | 8.27487 | 12957 ft | 201 kts | 79° |
| 2026-05-04 18:57 | 47.26195 | 8.29490 | 12947 ft | 201 kts | 79° |
| 2026-05-04 18:58 | 47.26227 | 8.31503 | 12966 ft | 195 kts | 101° |
| 2026-05-04 18:58 | 47.26019 | 8.33472 | 12967 ft | 195 kts | 104° |
| 2026-05-04 18:58 | 47.25808 | 8.35444 | 12966 ft | 195 kts | 103° |
| 2026-05-04 18:58 | 47.25626 | 8.37403 | 12967 ft | 196 kts | 102° |
| 2026-05-04 18:59 | 47.25451 | 8.39394 | 12966 ft | 197 kts | 102° |
| 2026-05-04 18:59 | 47.25274 | 8.41394 | 12971 ft | 197 kts | 102° |
| 2026-05-04 18:59 | 47.25095 | 8.43401 | 12961 ft | 198 kts | 102° |
| 2026-05-04 18:59 | 47.24889 | 8.45396 | 12947 ft | 196 kts | 108° |
| 2026-05-04 19:00 | 47.24570 | 8.47350 | 12946 ft | 196 kts | 109° |
| 2026-05-04 19:00 | 47.24247 | 8.49304 | 12944 ft | 197 kts | 109° |
| 2026-05-04 19:00 | 47.23920 | 8.51258 | 12943 ft | 197 kts | 109° |
| 2026-05-04 19:00 | 47.23595 | 8.53208 | 12943 ft | 196 kts | 109° |
| 2026-05-04 19:01 | 47.23271 | 8.55158 | 12947 ft | 196 kts | 109° |
| 2026-05-04 19:01 | 47.22945 | 8.57112 | 12942 ft | 196 kts | 109° |
| 2026-05-04 19:01 | 47.22622 | 8.59060 | 12946 ft | 196 kts | 109° |
| 2026-05-04 19:01 | 47.22297 | 8.61010 | 12942 ft | 196 kts | 109° |
| 2026-05-04 19:02 | 47.21969 | 8.62957 | 12944 ft | 196 kts | 109° |
| 2026-05-04 19:02 | 47.21643 | 8.64906 | 12942 ft | 196 kts | 109° |
| 2026-05-04 19:02 | 47.21317 | 8.66855 | 12940 ft | 196 kts | 109° |
| 2026-05-04 19:02 | 47.20992 | 8.68796 | 12942 ft | 195 kts | 109° |
| 2026-05-04 19:03 | 47.20666 | 8.70734 | 12935 ft | 195 kts | 109° |
| 2026-05-04 19:03 | 47.20305 | 8.72652 | 12933 ft | 193 kts | 116° |
| 2026-05-04 19:03 | 47.19839 | 8.74507 | 12936 ft | 193 kts | 116° |
| 2026-05-04 19:03 | 47.19364 | 8.76358 | 12932 ft | 193 kts | 116° |
| 2026-05-04 19:04 | 47.18892 | 8.78202 | 12934 ft | 192 kts | 116° |
| 2026-05-04 19:04 | 47.18423 | 8.80038 | 12932 ft | 192 kts | 117° |
| 2026-05-04 19:04 | 47.17954 | 8.81872 | 12935 ft | 191 kts | 117° |
| 2026-05-04 19:04 | 47.17487 | 8.83700 | 12931 ft | 191 kts | 117° |
| 2026-05-04 19:05 | 47.17020 | 8.85522 | 12929 ft | 190 kts | 116° |
| 2026-05-04 19:05 | 47.16553 | 8.87346 | 12934 ft | 191 kts | 116° |
| 2026-05-04 19:05 | 47.16082 | 8.89181 | 12947 ft | 194 kts | 116° |
| 2026-05-04 19:05 | 47.15596 | 8.91036 | 12939 ft | 194 kts | 120° |
| 2026-05-04 19:06 | 47.15082 | 8.92878 | 12938 ft | 195 kts | 117° |
| 2026-05-04 19:06 | 47.14591 | 8.94742 | 12939 ft | 196 kts | 117° |
| 2026-05-04 19:06 | 47.14095 | 8.96591 | 12927 ft | 194 kts | 117° |
| 2026-05-04 19:06 | 47.13596 | 8.98423 | 12936 ft | 193 kts | 117° |
| 2026-05-04 19:07 | 47.13105 | 9.00226 | 12940 ft | 193 kts | 117° |
| 2026-05-04 19:07 | 47.12604 | 9.02067 | 12939 ft | 194 kts | 117° |
| 2026-05-04 19:07 | 47.12104 | 9.03894 | 12932 ft | 191 kts | 117° |
| 2026-05-04 19:07 | 47.11605 | 9.05721 | 12924 ft | 196 kts | 117° |
| 2026-05-04 19:08 | 47.11102 | 9.07572 | 12937 ft | 195 kts | 117° |
| 2026-05-04 19:08 | 47.10599 | 9.09413 | 12939 ft | 194 kts | 116° |
| 2026-05-04 19:08 | 47.10097 | 9.11251 | 12936 ft | 193 kts | 116° |
| 2026-05-04 19:08 | 47.09600 | 9.13066 | 12926 ft | 190 kts | 117° |
| 2026-05-04 19:09 | 47.09107 | 9.14859 | 12932 ft | 191 kts | 117° |
| 2026-05-04 19:09 | 47.08610 | 9.16667 | 12941 ft | 191 kts | 117° |
| 2026-05-04 19:09 | 47.08113 | 9.18481 | 12940 ft | 192 kts | 117° |
| 2026-05-04 19:09 | 47.07614 | 9.20297 | 12943 ft | 192 kts | 117° |
| 2026-05-04 19:10 | 47.07114 | 9.22120 | 12939 ft | 193 kts | 116° |
| 2026-05-04 19:10 | 47.06610 | 9.23937 | 12917 ft | 191 kts | 117° |
| 2026-05-04 19:10 | 47.06118 | 9.25744 | 12936 ft | 192 kts | 117° |
| 2026-05-04 19:10 | 47.05621 | 9.27565 | 12940 ft | 193 kts | 117° |
| 2026-05-04 19:11 | 47.05116 | 9.29392 | 12942 ft | 194 kts | 117° |
| 2026-05-04 19:11 | 47.04716 | 9.31293 | 12940 ft | 195 kts | 110° |
| 2026-05-04 19:11 | 47.04356 | 9.33188 | 12937 ft | 195 kts | 110° |
| 2026-05-04 19:11 | 47.03995 | 9.35098 | 12937 ft | 194 kts | 110° |
| 2026-05-04 19:12 | 47.03636 | 9.36996 | 12940 ft | 193 kts | 110° |
| 2026-05-04 19:12 | 47.02911 | 9.40804 | 12953 ft | 197 kts | 110° |
| 2026-05-04 19:12 | 47.02536 | 9.42752 | 12939 ft | 198 kts | 110° |
| 2026-05-04 19:13 | 47.02168 | 9.44692 | 12932 ft | 197 kts | 109° |
| 2026-05-04 19:13 | 47.01803 | 9.46616 | 12937 ft | 195 kts | 109° |
| 2026-05-04 19:13 | 47.01409 | 9.48507 | 12933 ft | 192 kts | 118° |
| 2026-05-04 19:13 | 47.00898 | 9.50304 | 12934 ft | 191 kts | 120° |
| 2026-05-04 19:14 | 47.00372 | 9.52085 | 12935 ft | 191 kts | 120° |
| 2026-05-04 19:14 | 46.99848 | 9.53874 | 12937 ft | 192 kts | 119° |
| 2026-05-04 19:14 | 46.99325 | 9.55673 | 12944 ft | 192 kts | 119° |
| 2026-05-04 19:14 | 46.98802 | 9.57472 | 12945 ft | 192 kts | 119° |
| 2026-05-04 19:15 | 46.98277 | 9.59276 | 12954 ft | 193 kts | 119° |
| 2026-05-04 19:15 | 46.97768 | 9.61035 | 12966 ft | 182 kts | 118° |
| 2026-05-04 19:15 | 46.97286 | 9.62693 | 12970 ft | 168 kts | 119° |
| 2026-05-04 19:15 | 46.96844 | 9.64220 | 12934 ft | 157 kts | 120° |
| 2026-05-04 19:16 | 46.96427 | 9.65638 | 12944 ft | 149 kts | 120° |
| 2026-05-04 19:16 | 46.96030 | 9.67016 | 12944 ft | 143 kts | 120° |
| 2026-05-04 19:16 | 46.95648 | 9.68308 | 12970 ft | 138 kts | 121° |
| 2026-05-04 19:16 | 46.95265 | 9.69596 | 12972 ft | 139 kts | 121° |
| 2026-05-04 19:17 | 46.94879 | 9.70901 | 12991 ft | 142 kts | 122° |
| 2026-05-04 19:17 | 46.94481 | 9.72262 | 12989 ft | 148 kts | 121° |
| 2026-05-04 19:17 | 46.94076 | 9.73649 | 12992 ft | 152 kts | 121° |
| 2026-05-04 19:17 | 46.93655 | 9.75088 | 12984 ft | 155 kts | 121° |
| 2026-05-04 19:18 | 46.93227 | 9.76549 | 12985 ft | 157 kts | 121° |
| 2026-05-04 19:18 | 46.92793 | 9.78027 | 12983 ft | 159 kts | 120° |
| 2026-05-04 19:18 | 46.92353 | 9.79516 | 12979 ft | 161 kts | 121° |
| 2026-05-04 19:18 | 46.91895 | 9.81015 | 12981 ft | 162 kts | 121° |
| 2026-05-04 19:19 | 46.91428 | 9.82523 | 12985 ft | 163 kts | 121° |
| 2026-05-04 19:19 | 46.90958 | 9.84044 | 12986 ft | 164 kts | 121° |
| 2026-05-04 19:19 | 46.90488 | 9.85568 | 12988 ft | 165 kts | 120° |
| 2026-05-04 19:19 | 46.90015 | 9.87099 | 12989 ft | 165 kts | 120° |
| 2026-05-04 19:20 | 46.89544 | 9.88623 | 12983 ft | 164 kts | 121° |
| 2026-05-04 19:20 | 46.89076 | 9.90137 | 12983 ft | 163 kts | 121° |
| 2026-05-04 19:20 | 46.88597 | 9.91681 | 12920 ft | 168 kts | 121° |
| 2026-05-04 19:20 | 46.88119 | 9.93237 | 12906 ft | 168 kts | 121° |
| 2026-05-04 19:21 | 46.87651 | 9.94762 | 12916 ft | 165 kts | 121° |
| 2026-05-04 19:21 | 46.87169 | 9.96292 | 12918 ft | 167 kts | 121° |
| 2026-05-04 19:21 | 46.86689 | 9.97835 | 12932 ft | 167 kts | 120° |
| 2026-05-04 19:21 | 46.86209 | 9.99382 | 12927 ft | 168 kts | 120° |
| 2026-05-04 19:22 | 46.85729 | 10.00935 | 12932 ft | 166 kts | 121° |
| 2026-05-04 19:22 | 46.85269 | 10.02425 | 12952 ft | 158 kts | 121° |
| 2026-05-04 19:22 | 46.84816 | 10.03893 | 12952 ft | 160 kts | 120° |
| 2026-05-04 19:22 | 46.84351 | 10.05379 | 12941 ft | 160 kts | 121° |
| 2026-05-04 19:23 | 46.83892 | 10.06850 | 12931 ft | 158 kts | 121° |
| 2026-05-04 19:23 | 46.83463 | 10.08251 | 12941 ft | 143 kts | 122° |
| 2026-05-04 19:23 | 46.83194 | 10.09125 | 12939 ft | 144 kts | 121° |
| 2026-05-04 19:23 | 46.82764 | 10.10486 | 12944 ft | 153 kts | 122° |
| 2026-05-04 19:24 | 46.82306 | 10.11919 | 12929 ft | 158 kts | 122° |
| 2026-05-04 19:24 | 46.81856 | 10.13366 | 12933 ft | 155 kts | 121° |
| 2026-05-04 19:24 | 46.81410 | 10.14802 | 12956 ft | 156 kts | 122° |
| 2026-05-04 19:24 | 46.80958 | 10.16251 | 12958 ft | 158 kts | 121° |
| 2026-05-04 19:25 | 46.80500 | 10.17718 | 12957 ft | 160 kts | 121° |
| 2026-05-04 19:25 | 46.80022 | 10.19248 | 12706 ft | 167 kts | 120° |
| 2026-05-04 19:25 | 46.79508 | 10.20758 | 12510 ft | 167 kts | 129° |
| 2026-05-04 19:25 | 46.78699 | 10.21933 | 12275 ft | 162 kts | 151° |
| 2026-05-04 19:26 | 46.77710 | 10.22545 | 12080 ft | 149 kts | 171° |
| 2026-05-04 19:26 | 46.76712 | 10.22612 | 11886 ft | 139 kts | 189° |
| 2026-05-04 19:26 | 46.75815 | 10.22219 | 11714 ft | 132 kts | 206° |
| 2026-05-04 19:26 | 46.75085 | 10.21490 | 11559 ft | 125 kts | 221° |
| 2026-05-04 19:27 | 46.74523 | 10.20643 | 11390 ft | 122 kts | 224° |
| 2026-05-04 19:27 | 46.73989 | 10.19686 | 11275 ft | 113 kts | 234° |
| 2026-05-04 19:27 | 46.73628 | 10.18669 | 11048 ft | 116 kts | 240° |
| 2026-05-04 19:27 | 46.73380 | 10.17518 | 10853 ft | 122 kts | 251° |
| 2026-05-04 19:28 | 46.73198 | 10.16321 | 10713 ft | 120 kts | 250° |
| 2026-05-04 19:28 | 46.72940 | 10.15193 | 10436 ft | 115 kts | 233° |
| 2026-05-04 19:28 | 46.72444 | 10.14335 | 10000 ft | 110 kts | 222° |
| 2026-05-04 19:28 | 46.71898 | 10.13561 | 9804 ft | 109 kts | 220° |
| 2026-05-04 19:29 | 46.71345 | 10.12768 | 9624 ft | 117 kts | 222° |
| 2026-05-04 19:29 | 46.70784 | 10.11955 | 9552 ft | 108 kts | 219° |
| 2026-05-04 19:29 | 46.70270 | 10.11220 | 9400 ft | 100 kts | 218° |
| 2026-05-04 19:29 | 46.69773 | 10.10525 | 9245 ft | 101 kts | 218° |
| 2026-05-04 19:30 | 46.69256 | 10.09801 | 9088 ft | 105 kts | 219° |
| 2026-05-04 19:30 | 46.68745 | 10.09072 | 8875 ft | 102 kts | 217° |
| 2026-05-04 19:30 | 46.68242 | 10.08354 | 8620 ft | 101 kts | 217° |
| 2026-05-04 19:30 | 46.67742 | 10.07645 | 8324 ft | 100 kts | 221° |
| 2026-05-04 19:31 | 46.67216 | 10.06907 | 8042 ft | 108 kts | 223° |
| 2026-05-04 19:31 | 46.66664 | 10.06123 | 7801 ft | 112 kts | 224° |
| 2026-05-04 19:31 | 46.66100 | 10.05318 | 7662 ft | 114 kts | 225° |
| 2026-05-04 19:31 | 46.65531 | 10.04501 | 7498 ft | 116 kts | 225° |
| 2026-05-04 19:32 | 46.64954 | 10.03676 | 7369 ft | 116 kts | 224° |
| 2026-05-04 19:32 | 46.64399 | 10.02889 | 7307 ft | 111 kts | 224° |
| 2026-05-04 19:32 | 46.63840 | 10.02096 | 7289 ft | 110 kts | 224° |
| 2026-05-04 19:32 | 46.63293 | 10.01328 | 7246 ft | 108 kts | 220° |
| 2026-05-04 19:33 | 46.62753 | 10.00590 | 7223 ft | 103 kts | 228° |
| 2026-05-04 19:33 | 46.62266 | 9.99857 | 7226 ft | 99 kts | 223° |
| 2026-05-04 19:33 | 46.61757 | 9.99129 | 7241 ft | 107 kts | 224° |
| 2026-05-04 19:33 | 46.61204 | 9.98337 | 7250 ft | 115 kts | 225° |
| 2026-05-04 19:34 | 46.60635 | 9.97533 | 7252 ft | 113 kts | 224° |
| 2026-05-04 19:34 | 46.60075 | 9.96752 | 7256 ft | 111 kts | 223° |
| 2026-05-04 19:34 | 46.59532 | 9.95974 | 7249 ft | 109 kts | 224° |
| 2026-05-04 19:34 | 46.59011 | 9.95239 | 7237 ft | 100 kts | 222° |
| 2026-05-04 19:35 | 46.58535 | 9.94570 | 7204 ft | 89 kts | 222° |
| 2026-05-04 19:35 | 46.58064 | 9.93917 | 7144 ft | 101 kts | 222° |
| 2026-05-04 19:35 | 46.57527 | 9.93158 | 6963 ft | 112 kts | 223° |
| 2026-05-04 19:35 | 46.57047 | 9.92470 | 6765 ft | 87 kts | 220° |
| 2026-05-04 19:36 | 46.56628 | 9.91849 | 6558 ft | 86 kts | 230° |
| 2026-05-04 19:36 | 46.56297 | 9.91131 | 6409 ft | 89 kts | 230° |
| 2026-05-04 19:36 | 46.55857 | 9.90488 | 6284 ft | 88 kts | 217° |
| 2026-05-04 19:36 | 46.55371 | 9.89974 | 6053 ft | 84 kts | 209° |
| 2026-05-04 19:37 | 46.54875 | 9.89563 | 5877 ft | 83 kts | 205° |
| 2026-05-04 19:37 | 46.54354 | 9.89145 | 5706 ft | 86 kts | 207° |
| 2026-05-04 19:37 | 46.53856 | 9.88738 | 5585 ft | 69 kts | 208° |
| 2026-05-04 19:37 | 46.53541 | 9.88500 | 5596 ft | 37 kts | 210° |
| 2026-05-04 19:38 | 46.53345 | 9.88335 | 5598 ft | 31 kts | 209° |
| 2026-05-04 19:38 | 46.53183 | 9.88201 | 5602 ft | 29 kts | 210° |
| 2026-05-04 19:38 | 46.53001 | 9.88054 | 5599 ft | 14 kts | 210° |
| 2026-05-04 19:38 | 46.52994 | 9.87968 | 5599 ft | 9 kts | 300° |
| 2026-05-04 19:39 | 46.53041 | 9.87951 | 5605 ft | 9 kts | 27° |
| 2026-05-04 19:39 | 46.53069 | 9.87924 | 5599 ft | 8 kts | 213° |
| 2026-05-04 19:39 | 46.53042 | 9.87919 | 5602 ft | 0 kts | 124° |